createdAt,value
2023-05-04T00:00:08.143Z,14.40
2023-05-04T00:02:35.642Z,14.40
2023-05-04T00:05:06.125Z,14.30
2023-05-04T00:07:33.415Z,14.30
2023-05-04T00:10:01.307Z,14.20
2023-05-04T00:12:28.859Z,14.20
2023-05-04T00:14:58.113Z,14.30
2023-05-04T00:17:29.889Z,14.20
2023-05-04T00:19:59.286Z,14.20
2023-05-04T00:22:26.452Z,14.20
2023-05-04T00:24:55.870Z,14.20
2023-05-04T00:27:25.681Z,14.20
2023-05-04T00:29:57.577Z,14.20
2023-05-04T00:32:27.313Z,14.20
2023-05-04T00:35:05.191Z,14.10
2023-05-04T00:37:34.350Z,14.10
2023-05-04T00:40:06.946Z,14.10
2023-05-04T00:42:34.412Z,14.10
2023-05-04T00:45:03.685Z,14.10
2023-05-04T00:47:32.966Z,14.10
2023-05-04T00:50:03.154Z,14.10
2023-05-04T00:52:34.060Z,14.10
2023-05-04T00:55:06.429Z,14.00
2023-05-04T00:57:33.816Z,14.00
2023-05-04T01:00:02.340Z,14.00
2023-05-04T01:02:34.804Z,14.00
2023-05-04T01:05:02.786Z,14.00
2023-05-04T01:07:39.429Z,13.90
2023-05-04T01:10:20.946Z,13.90
2023-05-04T01:13:05.343Z,13.90
2023-05-04T01:15:33.364Z,13.80
2023-05-04T01:18:01.065Z,13.80
2023-05-04T01:20:28.667Z,13.80
2023-05-04T01:22:58.302Z,13.80
2023-05-04T01:25:32.144Z,13.80
2023-05-04T01:28:12.758Z,13.70
2023-05-04T01:30:48.743Z,13.80
2023-05-04T01:33:17.155Z,13.70
2023-05-04T01:35:45.628Z,13.70
2023-05-04T01:38:12.887Z,13.70
2023-05-04T01:40:42.426Z,13.60
2023-05-04T01:43:14.528Z,13.60
2023-05-04T01:45:44.138Z,13.60
2023-05-04T01:48:11.407Z,13.60
2023-05-04T01:50:38.565Z,13.60
2023-05-04T01:53:10.368Z,13.60
2023-05-04T01:55:38.191Z,13.60
2023-05-04T01:58:05.403Z,13.50
2023-05-04T02:00:33.113Z,13.50
2023-05-04T02:03:00.328Z,13.50
2023-05-04T02:05:27.552Z,13.50
2023-05-04T02:07:54.985Z,13.50
2023-05-04T02:10:22.061Z,13.50
2023-05-04T02:12:52.308Z,13.50
2023-05-04T02:15:19.524Z,13.40
2023-05-04T02:17:46.669Z,13.50
2023-05-04T02:20:18.754Z,13.40
2023-05-04T02:22:46.241Z,13.40
2023-05-04T02:25:15.959Z,13.30
2023-05-04T02:27:45.365Z,13.30
2023-05-04T02:30:15.613Z,13.30
2023-05-04T02:32:48.217Z,13.20
2023-05-04T02:35:19.937Z,13.20
2023-05-04T02:37:49.421Z,13.20
2023-05-04T02:40:16.680Z,13.10
2023-05-04T02:42:48.584Z,13.10
2023-05-04T02:45:22.855Z,13.10
2023-05-04T02:47:52.570Z,13.10
2023-05-04T02:50:22.258Z,13.10
2023-05-04T02:52:51.971Z,13.10
2023-05-04T02:55:19.277Z,13.10
2023-05-04T02:57:46.481Z,13.00
2023-05-04T03:00:14.005Z,13.00
2023-05-04T03:02:41.218Z,13.00
2023-05-04T03:05:11.058Z,13.00
2023-05-04T03:07:38.355Z,13.00
2023-05-04T03:10:09.566Z,13.00
2023-05-04T03:12:44.975Z,13.00
2023-05-04T03:15:17.148Z,12.90
2023-05-04T03:17:46.813Z,12.90
2023-05-04T03:20:18.618Z,12.90
2023-05-04T03:22:45.695Z,12.90
2023-05-04T03:25:12.810Z,12.80
2023-05-04T03:27:42.521Z,12.80
2023-05-04T03:30:12.893Z,12.80
2023-05-04T03:32:40.876Z,12.80
2023-05-04T03:35:10.525Z,12.80
2023-05-04T03:37:40.202Z,12.80
2023-05-04T03:40:08.104Z,12.80
2023-05-04T03:42:38.173Z,12.80
2023-05-04T03:45:06.160Z,12.70
2023-05-04T03:47:38.133Z,12.70
2023-05-04T03:50:06.011Z,12.70
2023-05-04T03:52:33.431Z,12.60
2023-05-04T03:55:03.101Z,12.60
2023-05-04T03:57:32.633Z,12.60
2023-05-04T03:59:59.725Z,12.60
2023-05-04T04:02:27.130Z,12.60
2023-05-04T04:04:54.427Z,12.60
2023-05-04T04:07:23.674Z,12.60
2023-05-04T04:09:53.224Z,12.50
2023-05-04T04:12:22.464Z,12.50
2023-05-04T04:14:51.904Z,12.50
2023-05-04T04:17:21.547Z,12.50
2023-05-04T04:19:48.771Z,12.50
2023-05-04T04:22:18.488Z,12.50
2023-05-04T04:24:48.185Z,12.50
2023-05-04T04:27:15.417Z,12.40
2023-05-04T04:29:43.008Z,12.40
2023-05-04T04:32:10.591Z,12.40
2023-05-04T04:34:40.733Z,12.40
2023-05-04T04:37:07.852Z,12.40
2023-05-04T04:39:35.025Z,12.40
2023-05-04T04:42:04.316Z,12.40
2023-05-04T04:44:33.888Z,12.30
2023-05-04T04:47:06.721Z,12.30
2023-05-04T04:49:33.963Z,12.30
2023-05-04T04:52:05.989Z,12.30
2023-05-04T04:54:35.636Z,12.30
2023-05-04T04:57:07.424Z,12.30
2023-05-04T04:59:39.306Z,12.30
2023-05-04T05:02:06.580Z,12.30
2023-05-04T05:04:35.886Z,12.30
2023-05-04T05:07:03.103Z,12.40
2023-05-04T05:09:32.741Z,12.40
2023-05-04T05:12:02.495Z,12.40
2023-05-04T05:14:31.674Z,12.40
2023-05-04T05:17:04.215Z,12.40
2023-05-04T05:19:36.990Z,12.40
2023-05-04T05:22:06.810Z,12.50
2023-05-04T05:24:36.125Z,12.50
2023-05-04T05:27:05.459Z,12.50
2023-05-04T05:29:35.778Z,12.50
2023-05-04T05:32:05.657Z,12.60
2023-05-04T05:34:38.908Z,12.60
2023-05-04T05:37:06.157Z,12.60
2023-05-04T05:39:37.808Z,12.60
2023-05-04T05:42:06.003Z,12.70
2023-05-04T05:44:37.607Z,12.70
2023-05-04T05:47:05.869Z,12.80
2023-05-04T05:49:37.517Z,12.80
2023-05-04T05:52:07.358Z,12.80
2023-05-04T05:54:41.374Z,12.90
2023-05-04T05:57:13.191Z,12.90
2023-05-04T05:59:42.147Z,13.00
2023-05-04T06:02:09.341Z,13.00
2023-05-04T06:04:36.962Z,13.00
2023-05-04T06:07:06.577Z,13.00
2023-05-04T06:09:36.617Z,13.00
2023-05-04T06:12:12.207Z,13.10
2023-05-04T06:14:43.914Z,13.10
2023-05-04T06:17:11.616Z,13.10
2023-05-04T06:19:39.284Z,13.20
2023-05-04T06:22:08.912Z,13.20
2023-05-04T06:24:40.551Z,13.30
2023-05-04T06:27:07.688Z,13.30
2023-05-04T06:29:34.863Z,13.40
2023-05-04T06:32:04.847Z,13.50
2023-05-04T06:34:34.385Z,13.60
2023-05-04T06:37:01.565Z,13.60
2023-05-04T06:39:31.516Z,13.70
2023-05-04T06:42:02.465Z,13.80
2023-05-04T06:44:34.120Z,13.90
2023-05-04T06:47:07.532Z,14.00
2023-05-04T06:49:35.226Z,14.10
2023-05-04T06:52:02.828Z,14.20
2023-05-04T06:54:30.152Z,14.30
2023-05-04T06:56:59.571Z,14.40
2023-05-04T06:59:29.211Z,14.50
2023-05-04T07:01:56.411Z,14.60
2023-05-04T07:04:26.632Z,14.70
2023-05-04T07:06:53.795Z,14.80
2023-05-04T07:09:23.879Z,14.90
2023-05-04T07:11:53.347Z,14.90
2023-05-04T07:14:21.844Z,15.00
2023-05-04T07:16:49.038Z,15.10
2023-05-04T07:19:18.754Z,15.20
2023-05-04T07:21:50.766Z,15.30
2023-05-04T07:24:20.083Z,15.30
2023-05-04T07:26:47.242Z,15.40
2023-05-04T07:29:16.840Z,15.50
2023-05-04T07:31:46.597Z,15.60
2023-05-04T07:34:13.919Z,15.70
2023-05-04T07:36:43.195Z,15.80
2023-05-04T07:39:12.879Z,15.80
2023-05-04T07:41:48.838Z,15.90
2023-05-04T07:44:19.061Z,16.00
2023-05-04T07:46:46.182Z,16.10
2023-05-04T07:49:15.929Z,16.20
2023-05-04T07:51:47.763Z,16.30
2023-05-04T07:54:17.852Z,16.30
2023-05-04T07:56:45.194Z,16.40
2023-05-04T07:59:18.065Z,16.50
2023-05-04T08:01:45.286Z,16.50
2023-05-04T08:04:14.732Z,16.60
2023-05-04T08:06:44.719Z,16.60
2023-05-04T08:09:15.111Z,16.70
2023-05-04T08:11:42.844Z,16.80
2023-05-04T08:14:12.592Z,16.90
2023-05-04T08:16:44.643Z,16.90
2023-05-04T08:19:14.418Z,16.90
2023-05-04T08:21:41.612Z,17.00
2023-05-04T08:24:09.035Z,17.00
2023-05-04T08:26:39.660Z,17.10
2023-05-04T08:29:10.830Z,17.20
2023-05-04T08:31:40.732Z,17.20
2023-05-04T08:34:07.915Z,17.30
2023-05-04T08:36:37.624Z,17.30
2023-05-04T08:39:04.874Z,17.40
2023-05-04T08:41:32.652Z,17.40
2023-05-04T08:44:09.809Z,17.40
2023-05-04T08:46:42.290Z,17.50
2023-05-04T08:49:11.886Z,17.60
2023-05-04T08:51:43.622Z,17.60
2023-05-04T08:54:13.568Z,17.70
2023-05-04T08:56:41.337Z,17.70
2023-05-04T08:59:20.881Z,17.70
2023-05-04T09:01:59.872Z,17.80
2023-05-04T09:04:30.712Z,17.90
2023-05-04T09:07:05.145Z,17.90
2023-05-04T09:09:37.200Z,18.00
2023-05-04T09:12:04.742Z,18.10
2023-05-04T09:14:36.444Z,18.20
2023-05-04T09:17:26.066Z,18.30
2023-05-04T09:20:03.637Z,18.40
2023-05-04T09:22:35.594Z,18.40
2023-05-04T09:25:11.155Z,18.50
2023-05-04T09:27:42.731Z,18.60
2023-05-04T09:30:12.581Z,18.70
2023-05-04T09:32:49.667Z,18.70
2023-05-04T09:35:35.262Z,18.80
2023-05-04T09:38:02.681Z,18.90
2023-05-04T09:40:46.643Z,18.90
2023-05-04T09:43:18.903Z,19.00
2023-05-04T09:45:51.556Z,19.10
2023-05-04T09:48:25.763Z,19.10
2023-05-04T09:51:00.533Z,19.20
2023-05-04T09:53:33.340Z,19.20
2023-05-04T09:56:17.994Z,19.20
2023-05-04T09:58:49.200Z,19.30
2023-05-04T10:01:17.276Z,19.40
2023-05-04T10:03:47.729Z,19.40
2023-05-04T10:06:17.737Z,19.50
2023-05-04T10:08:45.578Z,19.60
2023-05-04T10:11:16.144Z,19.60
2023-05-04T10:13:48.235Z,19.70
2023-05-04T10:16:45.502Z,19.80
2023-05-04T10:19:30.511Z,19.80
2023-05-04T10:22:12.161Z,19.90
2023-05-04T10:25:03.753Z,19.90
2023-05-04T10:27:40.147Z,20.00
2023-05-04T10:30:15.452Z,20.00
2023-05-04T10:32:42.715Z,20.10
2023-05-04T10:35:14.174Z,20.10
2023-05-04T10:37:57.196Z,20.20
2023-05-04T10:40:36.689Z,20.30
2023-05-04T10:43:04.755Z,20.30
2023-05-04T10:45:37.876Z,20.40
2023-05-04T10:48:05.930Z,20.40
2023-05-04T10:50:43.752Z,20.50
2023-05-04T10:53:16.688Z,20.60
2023-05-04T10:55:50.802Z,20.70
2023-05-04T10:58:29.020Z,20.70
2023-05-04T11:00:58.689Z,20.70
2023-05-04T11:03:41.437Z,20.80
2023-05-04T11:06:24.966Z,20.90
2023-05-04T11:09:02.810Z,20.90
2023-05-04T11:11:38.976Z,21.10
2023-05-04T11:14:06.258Z,21.20
2023-05-04T11:16:33.451Z,21.20
2023-05-04T11:19:09.741Z,21.30
2023-05-04T11:21:40.481Z,21.30
2023-05-04T11:24:10.013Z,21.30
2023-05-04T11:26:49.678Z,21.40
2023-05-04T11:29:16.963Z,21.50
2023-05-04T11:31:56.849Z,21.60
2023-05-04T11:34:24.158Z,21.70
2023-05-04T11:36:58.695Z,21.70
2023-05-04T11:39:33.487Z,21.80
2023-05-04T11:42:05.097Z,21.90
2023-05-04T11:44:41.050Z,22.00
2023-05-04T11:47:08.321Z,22.10
2023-05-04T11:49:37.988Z,22.20
2023-05-04T11:52:13.427Z,22.20
2023-05-04T11:54:42.718Z,22.30
2023-05-04T11:57:10.218Z,22.40
2023-05-04T11:59:53.910Z,22.40
2023-05-04T12:02:23.428Z,22.50
2023-05-04T12:04:50.754Z,22.60
2023-05-04T12:07:17.975Z,22.70
2023-05-04T12:09:50.918Z,22.80
2023-05-04T12:12:21.612Z,22.80
2023-05-04T12:14:58.269Z,22.90
2023-05-04T12:17:30.517Z,22.90
2023-05-04T12:19:57.848Z,23.00
2023-05-04T12:22:33.057Z,23.10
2023-05-04T12:25:00.431Z,23.10
2023-05-04T12:27:32.451Z,23.20
2023-05-04T12:29:59.522Z,23.30
2023-05-04T12:32:28.960Z,23.40
2023-05-04T12:34:58.535Z,23.50
2023-05-04T12:37:27.944Z,23.50
2023-05-04T12:39:57.559Z,23.60
2023-05-04T12:42:27.396Z,23.70
2023-05-04T12:44:54.522Z,23.80
2023-05-04T12:47:24.790Z,23.80
2023-05-04T12:49:52.237Z,23.90
2023-05-04T12:52:19.372Z,23.90
2023-05-04T12:54:48.725Z,24.00
2023-05-04T12:57:15.963Z,24.00
2023-05-04T12:59:45.697Z,24.10
2023-05-04T13:02:18.043Z,24.10
2023-05-04T13:04:45.219Z,24.20
2023-05-04T13:07:17.266Z,24.20
2023-05-04T13:09:44.432Z,24.30
2023-05-04T13:12:13.784Z,24.30
2023-05-04T13:14:43.726Z,24.40
2023-05-04T13:17:10.815Z,24.40
2023-05-04T13:19:38.035Z,24.50
2023-05-04T13:22:05.222Z,24.50
2023-05-04T13:24:37.241Z,24.60
2023-05-04T13:27:06.932Z,24.60
2023-05-04T13:29:34.408Z,24.70
2023-05-04T13:32:01.608Z,24.70
2023-05-04T13:34:35.652Z,24.80
2023-05-04T13:37:05.198Z,24.80
2023-05-04T13:39:44.339Z,24.90
2023-05-04T13:42:12.576Z,25.00
2023-05-04T13:44:45.517Z,25.00
2023-05-04T13:47:16.496Z,25.00
2023-05-04T13:49:43.701Z,25.10
2023-05-04T13:52:13.562Z,25.10
2023-05-04T13:54:43.049Z,25.20
2023-05-04T13:57:10.240Z,25.20
2023-05-04T13:59:48.767Z,25.30
2023-05-04T14:02:25.992Z,25.30
2023-05-04T14:04:55.774Z,25.30
2023-05-04T14:07:25.120Z,25.40
2023-05-04T14:09:55.540Z,25.40
2023-05-04T14:12:22.865Z,25.50
2023-05-04T14:14:50.838Z,25.50
2023-05-04T14:17:20.306Z,25.50
2023-05-04T14:19:47.508Z,25.60
2023-05-04T14:22:16.996Z,25.60
2023-05-04T14:24:44.462Z,25.70
2023-05-04T14:27:11.725Z,25.70
2023-05-04T14:29:41.373Z,25.80
2023-05-04T14:32:13.346Z,25.90
2023-05-04T14:34:43.009Z,26.00
2023-05-04T14:37:12.270Z,26.10
2023-05-04T14:39:39.601Z,26.20
2023-05-04T14:42:11.558Z,26.30
2023-05-04T14:44:38.686Z,26.40
2023-05-04T14:47:08.019Z,26.50
2023-05-04T14:49:43.066Z,26.60
2023-05-04T14:52:10.614Z,26.70
2023-05-04T14:54:40.175Z,26.90
2023-05-04T14:57:10.577Z,27.00
2023-05-04T14:59:38.700Z,27.10
2023-05-04T15:02:08.229Z,27.20
2023-05-04T15:04:36.474Z,27.20
2023-05-04T15:07:08.638Z,27.30
2023-05-04T15:09:35.853Z,27.40
2023-05-04T15:12:03.738Z,27.50
2023-05-04T15:14:35.389Z,27.60
2023-05-04T15:17:02.647Z,27.70
2023-05-04T15:19:30.095Z,27.80
2023-05-04T15:21:57.244Z,27.80
2023-05-04T15:24:24.449Z,27.90
2023-05-04T15:26:58.531Z,28.00
2023-05-04T15:29:26.056Z,28.00
2023-05-04T15:31:58.142Z,28.00
2023-05-04T15:34:27.563Z,28.00
2023-05-04T15:36:59.380Z,28.10
2023-05-04T15:39:29.127Z,28.10
2023-05-04T15:41:58.435Z,28.20
2023-05-04T15:44:27.691Z,28.20
2023-05-04T15:46:58.164Z,28.30
2023-05-04T15:49:27.532Z,28.30
2023-05-04T15:51:57.206Z,28.30
2023-05-04T15:54:24.350Z,28.30
2023-05-04T15:56:53.665Z,28.30
2023-05-04T15:59:23.129Z,28.30
2023-05-04T16:01:53.043Z,28.30
2023-05-04T16:04:24.847Z,28.30
2023-05-04T16:06:52.069Z,28.20
2023-05-04T16:09:20.736Z,28.20
2023-05-04T16:11:50.026Z,28.20
2023-05-04T16:14:17.236Z,28.20
2023-05-04T16:16:46.663Z,28.20
2023-05-04T16:19:13.816Z,28.20
2023-05-04T16:21:40.972Z,28.10
2023-05-04T16:24:10.059Z,28.10
2023-05-04T16:26:39.577Z,28.10
2023-05-04T16:29:14.148Z,28.00
2023-05-04T16:31:41.660Z,28.00
2023-05-04T16:34:11.082Z,27.90
2023-05-04T16:36:38.177Z,27.90
2023-05-04T16:39:05.723Z,27.90
2023-05-04T16:41:33.008Z,27.90
2023-05-04T16:44:02.778Z,27.80
2023-05-04T16:46:30.200Z,27.80
2023-05-04T16:48:57.392Z,27.80
2023-05-04T16:51:28.775Z,27.80
2023-05-04T16:53:58.559Z,27.80
2023-05-04T16:56:28.065Z,27.70
2023-05-04T16:58:55.238Z,27.70
2023-05-04T17:01:25.050Z,27.70
2023-05-04T17:03:54.603Z,27.70
2023-05-04T17:06:21.886Z,27.60
2023-05-04T17:08:49.153Z,27.60
2023-05-04T17:11:18.651Z,27.60
2023-05-04T17:13:45.809Z,27.60
2023-05-04T17:16:12.976Z,27.50
2023-05-04T17:18:42.562Z,27.50
2023-05-04T17:21:09.722Z,27.50
2023-05-04T17:23:39.198Z,27.50
2023-05-04T17:26:13.571Z,27.50
2023-05-04T17:28:40.736Z,27.50
2023-05-04T17:31:12.929Z,27.40
2023-05-04T17:33:40.090Z,27.40
2023-05-04T17:36:07.742Z,27.40
2023-05-04T17:38:38.128Z,27.30
2023-05-04T17:41:10.398Z,27.30
2023-05-04T17:43:39.846Z,27.30
2023-05-04T17:46:11.343Z,27.30
2023-05-04T17:48:40.967Z,27.30
2023-05-04T17:51:13.270Z,27.30
2023-05-04T17:53:42.639Z,27.20
2023-05-04T17:56:20.333Z,27.20
2023-05-04T17:58:47.535Z,27.20
2023-05-04T18:01:17.446Z,27.20
2023-05-04T18:03:47.247Z,27.10
2023-05-04T18:06:16.826Z,27.10
2023-05-04T18:08:46.507Z,27.10
2023-05-04T18:11:13.683Z,27.00
2023-05-04T18:13:40.982Z,27.00
2023-05-04T18:16:10.835Z,27.00
2023-05-04T18:18:42.565Z,27.00
2023-05-04T18:21:11.762Z,26.90
2023-05-04T18:23:38.997Z,26.90
2023-05-04T18:26:28.266Z,26.90
2023-05-04T18:28:59.205Z,26.80
2023-05-04T18:31:31.671Z,26.80
2023-05-04T18:34:03.773Z,26.70
2023-05-04T18:36:33.451Z,26.70
2023-05-04T18:39:00.702Z,26.60
2023-05-04T18:41:32.881Z,26.60
2023-05-04T18:44:01.085Z,26.50
2023-05-04T18:46:30.795Z,26.50
2023-05-04T18:49:00.002Z,26.40
2023-05-04T18:51:27.929Z,26.40
2023-05-04T18:53:55.064Z,26.30
2023-05-04T18:56:24.366Z,26.20
2023-05-04T18:58:52.156Z,26.20
2023-05-04T19:01:22.062Z,26.10
2023-05-04T19:03:51.488Z,26.00
2023-05-04T19:06:21.213Z,26.00
2023-05-04T19:08:55.498Z,25.90
2023-05-04T19:11:25.646Z,25.80
2023-05-04T19:13:55.550Z,25.70
2023-05-04T19:16:22.758Z,25.60
2023-05-04T19:18:57.285Z,25.50
2023-05-04T19:21:24.449Z,25.40
2023-05-04T19:23:59.155Z,25.40
2023-05-04T19:26:28.518Z,25.30
2023-05-04T19:28:55.740Z,25.30
2023-05-04T19:31:29.971Z,25.20
2023-05-04T19:33:59.765Z,25.10
2023-05-04T19:36:32.523Z,25.00
2023-05-04T19:38:59.674Z,25.00
2023-05-04T19:41:29.121Z,24.90
2023-05-04T19:43:56.286Z,24.80
2023-05-04T19:46:23.445Z,24.80
2023-05-04T19:48:57.621Z,24.70
2023-05-04T19:51:24.792Z,24.70
2023-05-04T19:53:52.173Z,24.60
2023-05-04T19:56:19.289Z,24.50
2023-05-04T19:58:51.168Z,24.50
2023-05-04T20:01:18.623Z,24.40
2023-05-04T20:03:50.343Z,24.40
2023-05-04T20:06:17.485Z,24.30
2023-05-04T20:08:45.163Z,24.30
2023-05-04T20:11:13.172Z,24.30
2023-05-04T20:13:42.830Z,24.20
2023-05-04T20:16:10.073Z,24.20
2023-05-04T20:18:37.273Z,24.20
2023-05-04T20:21:04.551Z,24.10
2023-05-04T20:23:31.666Z,24.10
2023-05-04T20:25:58.886Z,24.00
2023-05-04T20:28:26.112Z,24.00
2023-05-04T20:30:55.812Z,24.00
2023-05-04T20:33:25.152Z,24.00
2023-05-04T20:35:52.273Z,24.00
2023-05-04T20:38:19.595Z,24.00
2023-05-04T20:40:46.901Z,24.00
2023-05-04T20:43:18.456Z,24.00
2023-05-04T20:45:45.640Z,23.90
2023-05-04T20:48:15.210Z,23.90
2023-05-04T20:50:42.351Z,23.80
2023-05-04T20:53:12.623Z,23.80
2023-05-04T20:55:43.550Z,23.80
2023-05-04T20:58:14.722Z,23.80
2023-05-04T21:00:49.099Z,23.80
2023-05-04T21:03:20.976Z,23.80
2023-05-04T21:05:48.763Z,23.80
2023-05-04T21:08:17.972Z,23.70
2023-05-04T21:10:49.752Z,23.70
2023-05-04T21:13:16.957Z,23.60
2023-05-04T21:15:48.994Z,23.60
2023-05-04T21:18:16.159Z,23.60
2023-05-04T21:20:43.294Z,23.60
2023-05-04T21:23:15.412Z,23.60
2023-05-04T21:25:47.511Z,23.50
2023-05-04T21:28:18.957Z,23.50
2023-05-04T21:30:48.670Z,23.50
2023-05-04T21:33:15.796Z,23.50
2023-05-04T21:35:45.196Z,23.40
2023-05-04T21:38:14.902Z,23.40
2023-05-04T21:40:42.079Z,23.40
2023-05-04T21:43:16.675Z,23.40
2023-05-04T21:45:43.907Z,23.30
2023-05-04T21:48:11.281Z,23.30
2023-05-04T21:50:40.924Z,23.30
2023-05-04T21:53:10.097Z,23.40
2023-05-04T21:55:42.075Z,23.40
2023-05-04T21:58:11.541Z,23.40
2023-05-04T22:00:43.469Z,23.50
2023-05-04T22:03:12.830Z,23.50
2023-05-04T22:05:44.371Z,23.40
2023-05-04T22:08:13.986Z,23.30
2023-05-04T22:10:41.590Z,23.30
2023-05-04T22:13:08.742Z,23.30
2023-05-04T22:15:49.421Z,23.20
2023-05-04T22:18:22.515Z,23.10
2023-05-04T22:20:52.186Z,23.10
2023-05-04T22:23:21.817Z,23.00
2023-05-04T22:25:49.141Z,23.00
2023-05-04T22:28:21.061Z,22.90
2023-05-04T22:30:50.705Z,22.80
2023-05-04T22:33:17.894Z,22.80
2023-05-04T22:35:47.051Z,22.70
2023-05-04T22:38:16.343Z,22.60
2023-05-04T22:40:43.692Z,22.60
2023-05-04T22:43:11.104Z,22.50
2023-05-04T22:45:41.115Z,22.50
2023-05-04T22:48:08.642Z,22.40
2023-05-04T22:50:40.663Z,22.40
2023-05-04T22:53:10.419Z,22.40
2023-05-04T22:55:39.801Z,22.30
2023-05-04T22:58:09.156Z,22.30
2023-05-04T23:00:38.774Z,22.30
2023-05-04T23:03:06.489Z,22.20
2023-05-04T23:05:36.443Z,22.20
2023-05-04T23:08:03.856Z,22.20
2023-05-04T23:10:31.010Z,22.20
2023-05-04T23:13:07.716Z,22.10
2023-05-04T23:15:37.387Z,22.10
2023-05-04T23:18:04.955Z,22.00
2023-05-04T23:20:36.481Z,22.00
2023-05-04T23:23:03.660Z,22.00
2023-05-04T23:25:30.896Z,22.00
2023-05-04T23:28:00.357Z,22.00
2023-05-04T23:30:27.460Z,21.90
2023-05-04T23:32:57.786Z,21.90
2023-05-04T23:35:32.701Z,21.80
2023-05-04T23:38:02.650Z,21.80
2023-05-04T23:40:30.182Z,21.70
2023-05-04T23:42:57.551Z,21.70
2023-05-04T23:45:24.742Z,21.60
2023-05-04T23:47:56.594Z,21.50
2023-05-04T23:50:26.804Z,21.40
2023-05-04T23:52:56.282Z,21.40
2023-05-04T23:55:27.963Z,21.30
2023-05-04T23:57:57.603Z,21.20
